首页
METAR-TAF:

METAR-TAF

机场 :

Knoxville Municipal Airport

諾克斯維爾, 艾奥瓦州, 美国

纬度: 41-18N, 经度: 093-07W, 海拔: 283米

当前天气观测

该预报发布于24分钟前的10:55 UTC
风速9节,风向南转南东
温度 12°C
湿度 62%
气压 1010 hPa
能見度: 16.1公里
天空无云

METAR: KOXV 211055Z AUTO 16009KT 10SM CLR 12/05 A2982 RMK AO2

时间: 06:19 (11:19 UTC)


TAF: 丢失

超过4000个机场的气象观测和天气预报(METAR&TAF报告)。

可查询的气象台以黄色和红色小点在地图上表示。

将鼠标移到小点上方,可查看气象台名称。

然后点击查看天气观测和预报。

如需切换地图:点击带黑十字的绿色按钮放大地图;点击带横线的绿色按钮缩小地图;或者点击绿色箭头查看邻近地区的地图。


METAR-TAF: